KAST/AST METAR and TAF weather

Enter ICAO airport designator
Station Type Date Time Source
KAST METAR 2021/10/20 06:55 UTC NOAA

KAST 200655Z AUTO 12004KT 7SM -RA OVC070 11/10 A2959 RMK AO2 SLP021 P0006 T01110100


Station Type Date Time Source
KAST Decoded METAR 2021/10/20 06:55 UTC NOAA

PORT OF ASTORIA AIRPORT, OR, United States (KAST) 46-09N 123-53W 3M
Oct 20, 2021 - 02:55 AM EDT / 2021.10.20 0655 UTC
Wind: from the ESE (120 degrees) at 5 MPH (4 KT):0
Visibility: 7 mile(s):0
Sky conditions: overcast
Weather: light rain
Precipitation last hour: 0.06 inches
Temperature: 52.0 F (11.1 C)
Dew Point: 50.0 F (10.0 C)
Relative Humidity: 92%
Pressure (altimeter): 29.59 in. Hg (1002 hPa)
ob: KAST 200655Z AUTO 12004KT 7SM -RA OVC070 11/10 A2959 RMK AO2 SLP021 P0006 T01110100
cycle: 7

Station Type Date Time Source
KAST TAF 2021/10/20 06:22 UTC NOAA

TAF KAST 200520Z 2006/2106 VRB05KT 6SM -RA OVC070
FM200900 12009KT P6SM VCSH OVC045
FM201300 14015G24KT 6SM -RA OVC035
FM201500 20012G22KT P6SM -SHRA BKN035
FM201800 20015G24KT P6SM VCSH BKN050
FM210300 14009KT P6SM BKN080

Example: see airport list